Latest Weather Observations for Wyndham Airport

IDD60801

Issued at 10:31 am CST Thursday 2 July 2015 (issued every 30 minutes, with the page automatically refreshed every 10 minutes)

About weather observations | Map of weather stations | Latest weather observations for NT | Other Formats
Station Details ID: 001006 Name: WYNDHAM AERO Lat: -15.51 Lon: 128.15 Height: 3.8 m
Data from the previous 72 hours. | See also: Recent months for locations in Northern Territory
Date/Time
CST
Temp
°C
App
Temp
°C
Dew
Point
Rel
Hum
%
Delta-T
°C
Wind Press
QNH
hPa
Press
MSL
hPa
Rain
since 9 am
mm
Dir
 
Spd
km/h
Gust
km/h
Spd
kts
Gust
kts
02/10:30am 27.9 21.7 10.1 33 10.0 ESE 33 44 18 24 1019.1 1019.1 0.0
02/10:00am 28.0 22.2 10.7 34 9.8 ESE 32 41 17 22 1019.2 1019.2 0.0
02/09:30am 28.0 22.9 10.7 34 9.8 ESE 28 43 15 23 1019.2 1019.2 0.0
02/09:00am 25.5 23.0 10.9 40 8.2 ESE 15 19 8 10 1019.1 1019.1 0.0
02/08:30am 22.1 21.2 11.5 51 5.9 E 7 9 4 5 1019.0 1019.0 0.0
02/08:00am 19.9 18.2 10.0 53 5.3 E 9 13 5 7 1018.8 1018.8 0.0
02/07:30am 20.8 18.6 10.9 53 5.4 E 13 15 7 8 1018.6 1018.6 0.0
02/07:00am 20.6 18.8 11.0 54 5.3 E 11 13 6 7 1018.3 1018.3 0.0
02/06:30am 20.4 18.7 9.9 51 5.6 E 9 11 5 6 1018.2 1018.2 0.0
02/06:00am 21.2 19.7 10.7 51 5.7 ENE 9 11 5 6 1017.9 1017.9 0.0
02/05:30am 21.8 20.7 10.6 49 6.1 E 7 9 4 5 1017.8 1017.8 0.0
02/05:00am 22.4 21.4 10.9 48 6.4 E 7 9 4 5 1017.6 1017.6 0.0
02/04:30am 22.2 21.1 10.7 48 6.3 ENE 7 9 4 5 1017.5 1017.5 0.0
02/04:00am 22.2 20.9 10.0 46 6.6 NE 7 9 4 5 1017.4 1017.4 0.0
02/03:30am 22.5 21.2 10.0 45 6.8 E 7 9 4 5 1017.6 1017.6 0.0
02/03:00am 22.9 21.2 10.0 44 7.0 ENE 9 9 5 5 1017.8 1017.8 0.0
02/02:30am 23.2 21.5 9.9 43 7.2 E 9 11 5 6 1017.8 1017.8 0.0
02/02:00am 22.5 20.7 9.3 43 7.1 ENE 9 11 5 6 1017.9 1017.9 0.0
02/01:30am 22.7 21.0 9.8 44 7.0 E 9 11 5 6 1017.9 1017.9 0.0
02/01:00am 20.4 18.9 8.4 46 6.3 NNW 6 7 3 4 1017.7 1017.7 0.0
02/12:30am 23.1 21.3 9.5 42 7.3 ENE 9 9 5 5 1017.8 1017.8 0.0
02/12:00am 23.1 21.3 9.5 42 7.4 E 9 11 5 6 1017.9 1017.9 0.0
 
Date/Time
CST
Temp
°C
App
Temp
°C
Dew
Point
Rel
Hum
%
Delta-T
°C
Wind Press
QNH
hPa
Press
MSL
hPa
Rain
since 9 am
mm
Dir
 
Spd
km/h
Gust
km/h
Spd
kts
Gust
kts
01/11:30pm 23.3 21.2 9.7 42 7.4 ENE 11 13 6 7 1017.9 1017.9 0.0
01/11:00pm 23.4 21.2 9.4 41 7.6 E 11 13 6 7 1017.9 1017.9 0.0
01/10:30pm 23.5 21.2 9.1 40 7.7 ENE 11 13 6 7 1017.8 1017.8 0.0
01/10:00pm 24.1 21.3 8.5 37 8.3 E 13 15 7 8 1017.7 1017.7 0.0
01/09:30pm 24.7 22.3 8.6 36 8.6 ESE 11 15 6 8 1017.6 1017.6 0.0
01/09:00pm 24.8 22.0 8.7 36 8.7 ESE 13 15 7 8 1017.3 1017.3 0.0
01/08:30pm 24.0 21.0 7.6 35 8.6 ESE 13 17 7 9 1016.8 1016.8 0.0
01/08:00pm 24.6 21.5 7.3 33 9.1 SE 13 17 7 9 1016.4 1016.4 0.0
01/07:30pm 25.7 22.6 7.3 31 9.7 ESE 13 17 7 9 1015.9 1015.9 0.0
01/07:00pm 27.6 25.1 8.0 29 10.6 E 11 13 6 7 1015.7 1015.7 0.0
01/06:30pm 29.6 26.1 8.6 27 11.6 E 17 22 9 12 1015.4 1015.4 0.0
01/06:00pm 30.8 26.7 8.5 25 12.3 ESE 20 28 11 15 1015.2 1015.2 0.0
01/05:30pm 31.5 27.6 8.5 24 12.8 E 19 26 10 14 1015.0 1015.0 0.0
01/05:00pm 31.1 27.1 8.2 24 12.6 SE 19 26 10 14 1015.0 1015.0 0.0
01/04:30pm 32.3 29.7 9.2 24 13.0 E 13 26 7 14 1014.9 1014.9 0.0
01/04:00pm 32.5 28.0 8.7 23 13.3 ESE 22 32 12 17 1015.1 1015.1 0.0
01/03:30pm 31.9 28.8 8.8 24 12.9 ESE 15 24 8 13 1015.2 1015.2 0.0
01/03:00pm 32.2 28.2 9.1 24 13.0 ESE 20 32 11 17 1015.5 1015.5 0.0
01/02:30pm 32.1 28.2 9.6 25 12.7 E 20 30 11 16 1016.0 1016.0 0.0
01/02:00pm 32.2 28.2 10.3 26 12.6 E 22 33 12 18 1016.5 1016.5 0.0
01/01:30pm 31.5 26.5 9.7 26 12.3 E 26 39 14 21 1017.1 1017.1 0.0
01/01:00pm 31.6 26.8 10.3 27 12.2 E 26 35 14 19 1017.7 1017.7 0.0
01/12:30pm 31.2 25.9 10.0 27 12.0 E 28 41 15 22 1018.2 1018.2 0.0
01/12:00pm 30.6 25.3 10.0 28 11.7 ESE 28 35 15 19 1018.8 1018.8 0.0
01/11:30am 29.4 23.6 9.5 29 11.1 E 30 39 16 21 1019.4 1019.4 0.0
01/11:00am 29.0 23.5 9.2 29 11.0 E 28 37 15 20 1019.7 1019.7 0.0
01/10:30am 28.2 22.3 9.0 30 10.6 ESE 30 35 16 19 1019.9 1019.9 0.0
01/10:00am 27.7 21.2 9.0 31 10.3 ESE 33 44 18 24 1020.0 1020.0 0.0
01/09:52am 27.5 21.2 8.9 31 10.2 ESE 32 44 17 24 1019.9 1019.9 0.0
01/09:30am 26.8 22.6 8.3 31 10.0 ESE 20 26 11 14 1019.9 1019.9 0.0
01/09:00am 25.3 22.1 7.0 31 9.6 E 13 19 7 10 1019.7 1019.7 0.0
01/08:30am 22.8 19.5 6.6 35 8.3 E 13 15 7 8 1019.4 1019.4 0.0
01/08:00am 20.9 17.9 6.1 38 7.4 E 11 13 6 7 1019.0 1019.0 0.0
01/07:30am 16.2 13.6 4.3 45 5.5 ENE 7 11 4 6 1018.8 1018.8 0.0
01/07:00am 16.3 14.4 5.0 47 5.4 SE 4 6 2 3 1018.5 1018.5 0.0
01/06:30am 16.7 14.4 4.7 45 5.7 E 6 9 3 5 1018.3 1018.3 0.0
01/06:00am 15.7 12.9 5.0 49 5.1 E 9 9 5 5 1018.2 1018.2 0.0
01/05:30am 15.3 12.4 4.4 48 5.1 E 9 9 5 5 1018.2 1018.2 0.0
01/05:00am 15.2 13.2 4.6 49 4.9 NE 4 7 2 4 1018.1 1018.1 0.0
01/04:30am 17.1 15.2 4.8 44 5.8 WNW 4 6 2 3 1017.8 1017.8 0.0
01/04:00am 19.0 16.7 5.5 41 6.6 NNW 7 9 4 5 1017.6 1017.6 0.0
01/03:30am 18.0 15.6 5.2 43 6.2 NW 7 9 4 5 1017.6 1017.6 0.0
01/03:00am 16.6 14.3 5.6 48 5.3 WNW 7 9 4 5 1017.7 1017.7 0.0
01/02:30am 16.6 14.1 4.9 46 5.5 W 7 11 4 6 1017.9 1017.9 0.0
01/02:00am 16.7 15.0 4.1 43 5.9 NW 2 9 1 5 1017.9 1017.9 0.0
01/01:30am 18.0 16.7 4.2 40 6.5 CALM 0 0 0 0 1018.0 1018.0 0.0
01/01:00am 18.9 17.3 4.7 39 6.8 S 2 6 1 3 1017.9 1017.9 0.0
01/12:30am 18.7 15.8 4.5 39 6.8 SSW 9 11 5 6 1017.8 1017.8 0.0
01/12:00am 17.8 14.9 2.5 36 7.0 NNE 7 11 4 6 1017.7 1017.7 0.0
 
Date/Time
CST
Temp
°C
App
Temp
°C
Dew
Point
Rel
Hum
%
Delta-T
°C
Wind Press
QNH
hPa
Press
MSL
hPa
Rain
since 9 am
mm
Dir
 
Spd
km/h
Gust
km/h
Spd
kts
Gust
kts
30/11:30pm 18.8 16.3 3.8 37 7.1 ENE 6 7 3 4 1017.9 1017.9 0.0
30/11:00pm 18.5 15.5 3.9 38 6.9 ENE 9 9 5 5 1018.0 1018.0 0.0
30/10:30pm 19.3 16.6 3.5 35 7.4 ENE 7 9 4 5 1018.0 1018.0 0.0
30/10:00pm 21.1 18.4 3.8 32 8.3 E 7 9 4 5 1017.8 1017.8 0.0
30/09:30pm 23.7 20.9 5.1 30 9.3 E 9 11 5 6 1017.6 1017.6 0.0
30/09:00pm 23.9 21.1 5.3 30 9.4 E 9 9 5 5 1017.3 1017.3 0.0
30/08:30pm 24.5 21.6 4.8 28 9.9 NE 9 9 5 5 1016.9 1016.9 0.0
30/08:00pm 23.5 20.1 4.0 28 9.6 ESE 11 13 6 7 1016.5 1016.5 0.0
30/07:30pm 25.2 22.1 3.8 25 10.6 SE 9 13 5 7 1016.0 1016.0 0.0
30/07:00pm 25.9 22.8 3.8 24 11.0 E 9 11 5 6 1015.7 1015.7 0.0
30/06:30pm 28.9 25.3 5.1 22 12.3 E 13 17 7 9 1015.5 1015.5 0.0
30/06:00pm 30.2 25.7 4.0 19 13.4 ESE 17 26 9 14 1015.2 1015.2 0.0
30/05:30pm 30.9 25.9 4.6 19 13.6 ESE 20 30 11 16 1014.9 1014.9 0.0
30/05:00pm 31.1 26.0 4.0 18 13.9 ESE 20 30 11 16 1014.7 1014.7 0.0
30/04:30pm 31.2 26.3 4.9 19 13.7 ESE 20 28 11 15 1014.7 1014.7 0.0
30/04:00pm 31.4 26.5 5.0 19 13.8 ESE 20 32 11 17 1014.8 1014.8 0.0
30/03:30pm 31.5 26.6 5.1 19 13.9 ESE 20 30 11 16 1015.0 1015.0 0.0
30/03:00pm 31.7 27.0 5.3 19 13.9 ESE 19 28 10 15 1015.2 1015.2 0.0
30/02:30pm 31.6 27.1 5.9 20 13.7 E 19 30 10 16 1015.7 1015.7 0.0
30/02:00pm 31.2 27.0 5.6 20 13.5 ESE 17 26 9 14 1016.2 1016.2 0.0
30/01:30pm 31.5 26.9 5.8 20 13.6 E 19 32 10 17 1016.7 1016.7 0.0
30/01:00pm 31.1 26.0 6.2 21 13.3 E 22 41 12 22 1017.2 1017.2 0.0
30/12:30pm 31.6 26.1 5.9 20 13.7 ESE 24 39 13 21 1017.7 1017.7 0.0
30/12:00pm 30.4 24.7 4.9 20 13.3 E 24 37 13 20 1018.1 1018.1 0.0
30/11:30am 30.5 25.0 5.7 21 13.1 ESE 24 32 13 17 1018.6 1018.6 0.0
30/11:00am 29.5 23.4 4.9 21 12.7 ESE 26 37 14 20 1018.9 1018.9 0.0
30/10:30am 28.4 24.1 5.3 23 11.9 ESE 17 20 9 11 1019.2 1019.2 0.0
30/10:00am 26.2 24.2 6.3 28 10.3 S 6 9 3 5 1019.3 1019.3 0.0
30/09:30am 24.8 23.1 6.1 30 9.6 ENE 4 7 2 4 1019.3 1019.3 0.0
30/09:00am 21.3 20.5 6.4 38 7.5 CALM 0 0 0 0 1019.2 1019.2 0.0
30/08:30am 18.3 17.4 6.2 45 6.0 CALM 0 0 0 0 1018.9 1018.9 0.0
30/08:00am 15.5 14.6 6.0 53 4.6 CALM 0 0 0 0 1018.6 1018.6 0.0
30/07:30am 13.8 12.7 5.2 56 4.0 CALM 0 0 0 0 1018.2 1018.2 0.0
30/07:00am 13.9 12.9 5.8 58 3.8 CALM 0 0 0 0 1017.9 1017.9 0.0
30/06:30am 14.9 14.1 6.7 58 4.0 CALM 0 0 0 0 1017.5 1017.5 0.0
30/06:00am 15.7 15.2 7.7 59 4.0 CALM 0 4 0 2 1017.4 1017.4 0.0
30/05:30am 14.9 13.2 7.5 61 3.7 NW 6 7 3 4 1017.3 1017.3 0.0
30/05:00am 14.4 13.3 6.7 60 3.7 WSW 2 7 1 4 1017.1 1017.1 0.0
30/04:30am 14.6 13.2 5.7 55 4.2 ESE 2 6 1 3 1017.0 1017.0 0.0
30/04:00am 14.3 13.2 5.1 54 4.3 CALM 0 0 0 0 1017.1 1017.1 0.0
30/03:30am 14.2 12.3 4.8 53 4.4 ESE 4 6 2 3 1017.1 1017.1 0.0
30/03:00am 15.0 12.8 6.0 55 4.3 E 7 7 4 4 1017.0 1017.0 0.0
30/02:30am 16.1 14.0 6.8 54 4.6 ENE 7 9 4 5 1017.2 1017.2 0.0
30/02:00am 17.3 15.9 7.1 51 5.1 S 4 7 2 4 1017.3 1017.3 0.0
30/01:30am 17.7 16.0 7.4 51 5.2 E 6 7 3 4 1017.3 1017.3 0.0
30/01:00am 17.8 14.4 7.5 51 5.2 ESE 15 15 8 8 1017.3 1017.3 0.0
30/12:30am 17.9 15.5 5.2 43 6.1 E 7 9 4 5 1017.3 1017.3 0.0
30/12:00am 20.1 18.0 8.4 47 6.1 ENE 9 9 5 5 1017.1 1017.1 0.0
 
Date/Time
CST
Temp
°C
App
Temp
°C
Dew
Point
Rel
Hum
%
Delta-T
°C
Wind Press
QNH
hPa
Press
MSL
hPa
Rain
since 9 am
mm
Dir
 
Spd
km/h
Gust
km/h
Spd
kts
Gust
kts
29/11:30pm 19.9 17.8 8.3 47 6.0 E 9 11 5 6 1017.4 1017.4 0.0
29/11:00pm 19.5 16.9 7.6 46 6.1 E 11 13 6 7 1017.3 1017.3 0.0
29/10:30pm 19.2 16.1 7.3 46 6.0 E 13 13 7 7 1017.2 1017.2 0.0
29/10:00pm 19.5 18.7 6.3 42 6.6 CALM 0 0 0 0 1017.2 1017.2 0.0
29/09:30pm 19.7 18.5 4.6 37 7.3 CALM 0 0 0 0 1017.0 1017.0 0.0
29/09:00pm 22.7 21.7 5.6 33 8.6 CALM 0 0 0 0 1016.9 1016.9 0.0
29/08:30pm 22.9 20.3 6.2 34 8.5 WNW 9 9 5 5 1016.5 1016.5 0.0
29/08:00pm 24.3 22.2 6.6 32 9.1 SW 7 11 4 6 1016.2 1016.2 0.0
29/07:30pm 25.2 22.2 5.9 29 9.9 N 11 15 6 8 1015.8 1015.8 0.0
29/07:00pm 25.1 21.0 2.5 23 10.9 SE 13 13 7 7 1015.5 1015.5 0.0
29/06:30pm 27.9 23.9 2.9 20 12.4 SE 13 15 7 8 1015.3 1015.3 0.0
29/06:00pm 30.0 26.4 3.1 18 13.5 SE 11 15 6 8 1015.0 1015.0 0.0
29/05:30pm 30.7 28.0 2.9 17 14.0 ESE 6 15 3 8 1014.8 1014.8 0.0
29/05:00pm 31.1 28.3 3.2 17 14.2 SE 7 9 4 5 1014.8 1014.8 0.0
29/04:30pm 31.4 27.5 3.4 17 14.3 SE 13 22 7 12 1014.6 1014.6 0.0
29/04:00pm 31.5 27.8 4.3 18 14.1 ESE 13 19 7 10 1014.6 1014.6 0.0
29/03:30pm 31.5 28.5 4.3 18 14.1 SE 9 17 5 9 1014.8 1014.8 0.0
29/03:00pm 30.7 26.7 2.9 17 14.0 ESE 13 22 7 12 1015.0 1015.0 0.0
29/02:30pm 31.2 27.1 4.1 18 14.0 SE 15 24 8 13 1015.5 1015.5 0.0
29/02:00pm 30.4 27.0 4.2 19 13.5 NE 11 19 6 10 1016.1 1016.1 0.0
29/01:30pm 30.6 27.0 5.1 20 13.3 SE 13 19 7 10 1016.7 1016.7 0.0
29/01:00pm 29.9 24.9 3.8 19 13.3 E 19 30 10 16 1017.2 1017.2 0.0
29/12:30pm 30.6 25.3 5.1 20 13.3 ESE 22 33 12 18 1017.7 1017.7 0.0

Other Formats:

Comma delimited format used in spreadsheet applications
http://www.bom.gov.au/fwo/IDD60801/IDD60801.95214.axf

JavaScript Object Notation format (JSON) in row-major order
http://www.bom.gov.au/fwo/IDD60801/IDD60801.95214.json